Time;durP1;ratioP1;P1;durP2;ratioP2;P2;SDS_P1;SDS_P2;PMS_P1;PMS_P2;Temp;Humidity;BMP_temperature;BMP_pressure;BME280_temperature;BME280_humidity;BME280_pressure;Samples;Min_cycle;Max_cycle;Signal;HPM_P1;HPM_P2
2021/06/07 00:01:48;;;;;;;9.40;8.30;;;;;;;;;;5089685;28;20099;-77
2021/06/07 00:04:15;;;;;;;9.15;8.35;;;;;;;;;;5089314;28;20035;-79
2021/06/07 00:06:41;;;;;;;8.00;7.40;;;;;;;;;;5089682;28;20474;-80
2021/06/07 00:09:09;;;;;;;9.55;8.55;;;;;;;;;;5089497;28;20544;-78
2021/06/07 00:11:36;;;;;;;9.27;8.40;;;;;;;;;;5089400;28;20035;-79
2021/06/07 00:14:02;;;;;;;33.83;30.23;;;;;;;;;;5089372;28;20475;-81
2021/06/07 00:16:29;;;;;;;14.55;11.32;;;;;;;;;;5089304;28;20021;-78
2021/06/07 00:18:56;;;;;;;10.95;9.48;;;;;;;;;;5089372;28;20028;-77
2021/06/07 00:21:23;;;;;;;9.60;8.55;;;;;;;;;;5089196;28;20028;-80
2021/06/07 00:23:50;;;;;;;9.63;8.57;;;;;;;;;;5089426;28;20474;-78
2021/06/07 00:26:16;;;;;;;10.73;8.43;;;;;;;;;;5088965;28;20032;-80
2021/06/07 00:28:42;;;;;;;9.88;8.88;;;;;;;;;;5089162;28;20029;-80
2021/06/07 00:31:09;;;;;;;11.52;10.15;;;;;;;;;;5089133;28;20486;-78
2021/06/07 00:33:35;;;;;;;14.95;13.55;;;;;;;;;;5089029;28;20386;-78
2021/06/07 00:36:02;;;;;;;9.85;8.98;;;;;;;;;;5089118;28;20028;-77
2021/06/07 00:38:28;;;;;;;9.70;8.80;;;;;;;;;;5087626;28;20024;-79
2021/06/07 00:40:54;;;;;;;9.10;8.20;;;;;;;;;;5088933;28;20048;-80
2021/06/07 00:43:21;;;;;;;10.30;8.95;;;;;;;;;;5088526;28;20050;-77
2021/06/07 00:45:47;;;;;;;9.93;9.07;;;;;;;;;;5088753;28;20044;-81
2021/06/07 00:48:13;;;;;;;10.13;9.18;;;;;;;;;;5088886;28;20437;-80
2021/06/07 00:50:42;;;;;;;11.07;8.55;;;;;;;;;;5088689;28;20020;-81
2021/06/07 00:53:10;;;;;;;8.77;7.95;;;;;;;;;;5088714;28;20059;-78
2021/06/07 00:55:46;;;;;;;9.68;8.73;;;;;;;;;;5087706;28;20053;-81
2021/06/07 00:58:12;;;;;;;11.35;10.25;;;;;;;;;;5074681;28;20526;-81
2021/06/07 01:00:40;;;;;;;13.05;9.85;;;;;;;;;;5075063;28;20519;-77
2021/06/07 01:03:07;;;;;;;11.57;9.95;;;;;;;;;;5074759;28;20364;-80
2021/06/07 01:05:34;;;;;;;14.07;11.98;;;;;;;;;;5074878;28;20043;-78
2021/06/07 01:08:01;;;;;;;15.38;13.07;;;;;;;;;;5074855;28;20103;-80
2021/06/07 01:10:27;;;;;;;17.45;12.32;;;;;;;;;;5074548;28;20025;-78
2021/06/07 01:12:54;;;;;;;15.50;12.30;;;;;;;;;;5074820;28;20036;-78
2021/06/07 01:15:21;;;;;;;12.65;11.32;;;;;;;;;;5074683;28;20032;-78
2021/06/07 01:17:48;;;;;;;11.60;10.50;;;;;;;;;;5074853;28;20025;-79
2021/06/07 01:20:16;;;;;;;14.50;10.40;;;;;;;;;;5074654;28;20032;-80
2021/06/07 01:22:42;;;;;;;12.68;10.35;;;;;;;;;;5074913;28;20033;-80
2021/06/07 01:25:27;;;;;;;10.85;9.60;;;;;;;;;;5074488;28;20025;-81
2021/06/07 01:27:53;;;;;;;11.32;9.52;;;;;;;;;;5073298;28;20024;-77
2021/06/07 01:30:22;;;;;;;10.70;9.63;;;;;;;;;;5074289;28;20021;-81
2021/06/07 01:32:48;;;;;;;11.35;9.85;;;;;;;;;;5074609;28;20036;-81
2021/06/07 01:35:14;;;;;;;9.98;8.98;;;;;;;;;;5074231;28;20371;-80
2021/06/07 01:37:41;;;;;;;10.15;9.15;;;;;;;;;;5074486;28;20414;-81
2021/06/07 01:40:10;;;;;;;11.63;10.52;;;;;;;;;;5074168;28;20032;-78
2021/06/07 01:42:36;;;;;;;11.07;10.05;;;;;;;;;;5074376;28;20107;-80
2021/06/07 01:45:04;;;;;;;11.07;10.02;;;;;;;;;;5074095;28;20034;-80
2021/06/07 01:47:30;;;;;;;11.43;10.32;;;;;;;;;;5074448;28;20051;-79
2021/06/07 01:49:56;;;;;;;10.32;9.35;;;;;;;;;;5074114;28;20038;-77
2021/06/07 01:52:22;;;;;;;9.85;8.95;;;;;;;;;;5074164;28;20436;-81
2021/06/07 01:54:48;;;;;;;10.50;9.50;;;;;;;;;;5073810;28;20064;-80
2021/06/07 01:57:15;;;;;;;19.08;14.18;;;;;;;;;;5073924;28;20033;-78
2021/06/07 01:59:41;;;;;;;21.60;16.58;;;;;;;;;;5074206;28;20059;-79
2021/06/07 02:02:07;;;;;;;23.65;17.15;;;;;;;;;;5073670;28;20021;-77
2021/06/07 02:04:34;;;;;;;40.90;28.10;;;;;;;;;;5073788;28;20051;-78
2021/06/07 02:07:00;;;;;;;39.15;26.58;;;;;;;;;;5073815;28;20489;-81
2021/06/07 02:09:26;;;;;;;38.45;27.25;;;;;;;;;;5072722;28;20024;-81
2021/06/07 02:11:52;;;;;;;41.08;27.90;;;;;;;;;;5073939;28;20028;-78
2021/06/07 02:14:19;;;;;;;39.35;27.38;;;;;;;;;;5072246;28;20111;-77
2021/06/07 02:16:45;;;;;;;36.30;24.23;;;;;;;;;;5073759;28;20027;-78
2021/06/07 02:19:11;;;;;;;33.92;25.88;;;;;;;;;;5073237;28;20032;-80
2021/06/07 02:21:38;;;;;;;32.05;22.42;;;;;;;;;;5073630;28;20032;-77
2021/06/07 02:24:22;;;;;;;32.28;21.23;;;;;;;;;;5073218;28;20039;-78
2021/06/07 02:26:48;;;;;;;;;;;;;;;;;;5073996;28;20028;-80
2021/06/07 02:29:15;;;;;;;24.90;18.35;;;;;;;;;;5073222;28;19904;-80
2021/06/07 02:31:41;;;;;;;24.65;18.73;;;;;;;;;;5073370;28;20374;-79
2021/06/07 02:34:08;;;;;;;26.60;19.35;;;;;;;;;;5073118;28;20028;-80
2021/06/07 02:36:36;;;;;;;29.20;21.58;;;;;;;;;;5073337;28;20136;-80
2021/06/07 02:39:07;;;;;;;32.30;22.98;;;;;;;;;;5073011;28;20044;-80
2021/06/07 02:41:33;;;;;;;30.25;21.45;;;;;;;;;;5073252;28;20098;-79
2021/06/07 02:43:59;;;;;;;28.83;20.13;;;;;;;;;;5072890;28;20039;-81
2021/06/07 02:46:25;;;;;;;25.40;19.58;;;;;;;;;;5073013;28;20043;-79
2021/06/07 02:48:51;;;;;;;25.08;19.83;;;;;;;;;;5073131;28;20029;-78
2021/06/07 02:51:18;;;;;;;29.95;22.45;;;;;;;;;;5072743;28;20118;-77
2021/06/07 02:53:44;;;;;;;24.55;20.42;;;;;;;;;;5073084;28;20028;-81
2021/06/07 02:56:11;;;;;;;27.48;19.27;;;;;;;;;;5072464;28;20053;-79
2021/06/07 02:58:37;;;;;;;25.25;19.40;;;;;;;;;;5072989;28;20439;-78
2021/06/07 03:01:10;;;;;;;25.30;18.52;;;;;;;;;;5072659;28;20115;-79
2021/06/07 03:03:36;;;;;;;21.75;16.50;;;;;;;;;;5071556;28;20383;-80
2021/06/07 03:06:02;;;;;;;16.88;14.52;;;;;;;;;;5072536;28;20032;-78
2021/06/07 03:08:30;;;;;;;17.17;13.90;;;;;;;;;;5072846;28;20029;-78
2021/06/07 03:10:57;;;;;;;15.60;13.60;;;;;;;;;;5072603;28;20035;-80
2021/06/07 03:13:24;;;;;;;20.55;15.50;;;;;;;;;;5072616;28;20032;-79
2021/06/07 03:15:52;;;;;;;24.48;17.92;;;;;;;;;;5072615;28;20391;-81
2021/06/07 03:18:18;;;;;;;22.73;16.40;;;;;;;;;;5072437;28;20031;-80
2021/06/07 03:20:44;;;;;;;19.55;16.48;;;;;;;;;;5072523;28;20055;-80
2021/06/07 03:23:13;;;;;;;21.80;15.90;;;;;;;;;;5072302;28;20099;-80
2021/06/07 03:25:41;;;;;;;19.98;14.00;;;;;;;;;;5072608;28;20368;-80
2021/06/07 03:28:08;;;;;;;17.63;13.45;;;;;;;;;;5072217;28;20028;-78
2021/06/07 03:30:35;;;;;;;14.68;12.10;;;;;;;;;;5072520;28;20427;-81
2021/06/07 03:33:01;;;;;;;13.45;11.70;;;;;;;;;;5072290;28;20021;-81
2021/06/07 03:35:27;;;;;;;14.15;11.63;;;;;;;;;;5072468;28;20028;-80
2021/06/07 03:37:53;;;;;;;14.70;13.15;;;;;;;;;;5072416;28;20036;-81
2021/06/07 03:40:22;;;;;;;12.38;11.10;;;;;;;;;;5072298;28;20025;-80
2021/06/07 03:42:48;;;;;;;13.82;12.02;;;;;;;;;;5072457;28;20029;-79
2021/06/07 03:45:15;;;;;;;14.68;12.45;;;;;;;;;;5072011;28;20036;-78
2021/06/07 03:47:41;;;;;;;16.70;13.45;;;;;;;;;;5072338;28;20021;-80
2021/06/07 03:50:08;;;;;;;17.60;14.77;;;;;;;;;;5072054;28;20036;-80
2021/06/07 03:52:35;;;;;;;16.40;13.13;;;;;;;;;;5072369;28;20032;-77
2021/06/07 03:55:02;;;;;;;15.90;12.90;;;;;;;;;;5071859;28;20063;-79
2021/06/07 03:57:28;;;;;;;18.30;12.65;;;;;;;;;;5072335;28;20471;-80
2021/06/07 03:59:54;;;;;;;15.50;11.95;;;;;;;;;;5072255;28;20039;-81
2021/06/07 04:02:21;;;;;;;17.48;14.85;;;;;;;;;;5071929;28;20475;-80
2021/06/07 04:04:47;;;;;;;14.77;12.52;;;;;;;;;;5072105;28;20027;-78
2021/06/07 04:07:13;;;;;;;17.85;14.45;;;;;;;;;;5072029;28;20344;-77
2021/06/07 04:09:41;;;;;;;15.70;13.75;;;;;;;;;;5072301;28;20029;-81
2021/06/07 04:12:07;;;;;;;14.77;13.27;;;;;;;;;;5072021;28;20021;-79
2021/06/07 04:14:33;;;;;;;16.52;12.60;;;;;;;;;;5072251;28;20021;-82
2021/06/07 04:17:00;;;;;;;14.80;12.95;;;;;;;;;;5071896;28;20024;-83
2021/06/07 04:19:26;;;;;;;19.55;13.23;;;;;;;;;;5071867;28;20043;-78
2021/06/07 04:21:52;;;;;;;19.75;17.75;;;;;;;;;;5071946;28;20029;-79
2021/06/07 04:24:18;;;;;;;41.42;32.92;;;;;;;;;;5071460;28;20028;-79
2021/06/07 04:26:44;;;;;;;39.47;31.30;;;;;;;;;;5071952;28;20035;-81
2021/06/07 04:29:10;;;;;;;18.10;13.68;;;;;;;;;;5071641;28;20394;-83
2021/06/07 04:31:37;;;;;;;18.75;15.93;;;;;;;;;;5072850;28;20033;-85
2021/06/07 04:34:03;;;;;;;18.00;15.27;;;;;;;;;;5075629;28;20089;-84
2021/06/07 04:36:29;;;;;;;17.13;15.40;;;;;;;;;;5075214;28;20081;-83
2021/06/07 04:38:55;;;;;;;17.98;16.08;;;;;;;;;;5075506;28;20024;-81
2021/06/07 04:41:21;;;;;;;17.08;14.70;;;;;;;;;;5075174;28;20043;-79
2021/06/07 04:43:47;;;;;;;21.33;17.00;;;;;;;;;;5075631;28;20056;-81
2021/06/07 04:46:13;;;;;;;19.55;16.05;;;;;;;;;;5075006;28;20033;-82
2021/06/07 04:48:40;;;;;;;19.42;17.17;;;;;;;;;;5075390;28;20024;-79
2021/06/07 04:51:06;;;;;;;20.55;17.67;;;;;;;;;;5075941;28;20032;-80
2021/06/07 04:53:32;;;;;;;17.83;15.93;;;;;;;;;;5076450;28;20025;-79
2021/06/07 04:55:58;;;;;;;19.83;15.95;;;;;;;;;;5075232;28;20052;-81
2021/06/07 04:58:29;;;;;;;18.88;15.95;;;;;;;;;;5074871;28;20025;-79
2021/06/07 05:00:56;;;;;;;19.75;17.02;;;;;;;;;;5075061;28;20467;-80
2021/06/07 05:03:26;;;;;;;21.77;18.67;;;;;;;;;;5074816;28;20099;-81
2021/06/07 05:05:56;;;;;;;21.33;18.05;;;;;;;;;;5074906;28;20036;-80
2021/06/07 05:08:23;;;;;;;21.65;17.20;;;;;;;;;;5074712;28;20029;-80
2021/06/07 05:10:49;;;;;;;18.25;16.33;;;;;;;;;;5079285;28;20040;-80
2021/06/07 05:13:15;;;;;;;18.83;15.88;;;;;;;;;;5089570;28;20072;-80
2021/06/07 05:15:42;;;;;;;19.15;15.60;;;;;;;;;;5093369;28;20112;-80
2021/06/07 05:18:08;;;;;;;16.55;14.70;;;;;;;;;;5095025;28;20030;-78
2021/06/07 05:20:35;;;;;;;19.17;16.10;;;;;;;;;;5079790;28;20059;-79
2021/06/07 05:23:01;;;;;;;20.33;18.25;;;;;;;;;;5070060;28;20389;-80
2021/06/07 05:25:28;;;;;;;18.23;15.80;;;;;;;;;;5073335;28;20441;-78
2021/06/07 05:27:56;;;;;;;19.90;16.10;;;;;;;;;;5080048;28;20062;-80
2021/06/07 05:30:23;;;;;;;19.30;17.33;;;;;;;;;;5090264;28;20026;-77
2021/06/07 05:32:50;;;;;;;18.17;15.65;;;;;;;;;;5094370;28;20030;-82
2021/06/07 05:35:17;;;;;;;17.67;14.60;;;;;;;;;;5093845;28;20031;-79
2021/06/07 05:37:44;;;;;;;17.08;14.48;;;;;;;;;;5083993;28;20036;-81
2021/06/07 05:40:10;;;;;;;17.15;15.35;;;;;;;;;;5078136;28;20028;-83
2021/06/07 05:42:36;;;;;;;17.50;15.80;;;;;;;;;;5073899;28;20059;-82
2021/06/07 05:45:04;;;;;;;17.83;15.02;;;;;;;;;;5072625;28;20039;-80
2021/06/07 05:47:30;;;;;;;17.63;14.98;;;;;;;;;;5074521;28;20552;-79
2021/06/07 05:49:56;;;;;;;16.27;13.88;;;;;;;;;;5092532;28;20032;-79
2021/06/07 05:52:22;;;;;;;16.33;13.57;;;;;;;;;;5084622;28;20039;-81
2021/06/07 05:54:48;;;;;;;17.67;15.85;;;;;;;;;;5090950;28;20033;-78
2021/06/07 05:57:15;;;;;;;17.65;15.88;;;;;;;;;;5082626;28;20043;-82
2021/06/07 05:59:43;;;;;;;16.38;14.77;;;;;;;;;;5092987;28;20032;-78
2021/06/07 06:02:09;;;;;;;12.57;11.27;;;;;;;;;;5093486;28;20035;-81
2021/06/07 06:04:36;;;;;;;11.45;10.45;;;;;;;;;;5093951;28;20356;-82
2021/06/07 06:07:03;;;;;;;12.25;11.00;;;;;;;;;;5094098;28;20056;-81
2021/06/07 06:09:29;;;;;;;12.70;11.40;;;;;;;;;;5093578;28;20424;-82
2021/06/07 06:11:57;;;;;;;11.90;10.63;;;;;;;;;;5091824;28;20474;-81
2021/06/07 06:14:23;;;;;;;11.30;10.25;;;;;;;;;;5082781;28;20097;-84
2021/06/07 06:16:49;;;;;;;10.65;9.73;;;;;;;;;;5093521;28;20028;-83
2021/06/07 06:19:15;;;;;;;12.00;10.25;;;;;;;;;;5092111;28;20036;-79
2021/06/07 06:21:41;;;;;;;12.57;11.48;;;;;;;;;;5073331;28;20044;-84
2021/06/07 06:24:08;;;;;;;18.17;16.25;;;;;;;;;;5072982;28;20029;-82
2021/06/07 06:26:35;;;;;;;12.23;11.10;;;;;;;;;;5073506;28;20119;-80
2021/06/07 06:29:01;;;;;;;11.25;10.25;;;;;;;;;;5073632;28;20021;-80
2021/06/07 06:31:27;;;;;;;13.60;12.38;;;;;;;;;;5072854;28;20438;-79
2021/06/07 06:33:54;;;;;;;14.20;12.85;;;;;;;;;;5073395;28;20024;-82
2021/06/07 06:36:27;;;;;;;15.73;14.25;;;;;;;;;;5072834;28;20081;-81
2021/06/07 06:38:53;;;;;;;13.07;11.75;;;;;;;;;;5072787;28;20021;-81
2021/06/07 06:41:23;;;;;;;14.82;13.52;;;;;;;;;;5070717;28;20024;-81
2021/06/07 06:43:49;;;;;;;11.35;10.38;;;;;;;;;;5064377;28;20069;-83
2021/06/07 06:46:15;;;;;;;10.68;9.68;;;;;;;;;;5086126;28;20036;-80
2021/06/07 06:48:42;;;;;;;10.95;10.02;;;;;;;;;;5079819;28;20029;-73
2021/06/07 06:51:08;;;;;;;10.98;10.07;;;;;;;;;;5082502;28;20028;-80
2021/06/07 06:53:34;;;;;;;11.00;9.23;;;;;;;;;;5081308;28;20099;-79
2021/06/07 06:56:00;;;;;;;11.77;10.57;;;;;;;;;;5082139;28;20056;-84
2021/06/07 06:58:26;;;;;;;10.98;9.88;;;;;;;;;;5079582;28;20131;-79
2021/06/07 07:00:53;;;;;;;10.43;9.52;;;;;;;;;;5081874;28;20032;-79
2021/06/07 07:03:20;;;;;;;9.95;9.05;;;;;;;;;;5081391;28;20479;-83
2021/06/07 07:05:47;;;;;;;10.20;9.20;;;;;;;;;;5083523;28;20490;-83
2021/06/07 07:08:14;;;;;;;13.73;9.45;;;;;;;;;;5081025;28;20563;-82
2021/06/07 07:10:44;;;;;;;9.25;8.45;;;;;;;;;;5077853;28;20032;-87
2021/06/07 07:13:11;;;;;;;9.98;8.80;;;;;;;;;;5078613;28;20386;-81
2021/06/07 07:15:38;;;;;;;11.38;10.38;;;;;;;;;;5079555;28;20031;-80
2021/06/07 07:18:04;;;;;;;9.52;8.63;;;;;;;;;;5072325;28;20034;-83
2021/06/07 07:20:30;;;;;;;8.80;7.88;;;;;;;;;;5082323;28;20078;-81
2021/06/07 07:22:57;;;;;;;9.52;8.63;;;;;;;;;;5075819;28;20572;-80
2021/06/07 07:25:25;;;;;;;10.50;8.75;;;;;;;;;;5071476;28;20056;-82
2021/06/07 07:27:52;;;;;;;9.98;9.07;;;;;;;;;;5071929;28;20028;-68
2021/06/07 07:30:20;;;;;;;12.73;9.05;;;;;;;;;;5075100;28;20081;-81
2021/06/07 07:32:50;;;;;;;10.32;9.43;;;;;;;;;;5078834;28;20033;-83
2021/06/07 07:35:17;;;;;;;9.70;8.57;;;;;;;;;;5084918;28;20027;-78
2021/06/07 07:37:43;;;;;;;11.05;10.05;;;;;;;;;;5084522;28;20085;-81
2021/06/07 07:40:11;;;;;;;11.32;9.10;;;;;;;;;;5091715;28;20098;-80
2021/06/07 07:42:37;;;;;;;10.23;9.23;;;;;;;;;;5091269;28;20398;-80
2021/06/07 07:45:05;;;;;;;9.38;8.35;;;;;;;;;;5091929;28;20036;-81
2021/06/07 07:47:32;;;;;;;10.30;9.27;;;;;;;;;;5092357;28;20056;-82
2021/06/07 07:49:58;;;;;;;9.07;8.20;;;;;;;;;;5092631;28;20024;-82
2021/06/07 07:52:25;;;;;;;8.88;7.93;;;;;;;;;;5091818;28;20055;-82
2021/06/07 07:54:51;;;;;;;9.43;8.45;;;;;;;;;;5091901;28;20039;-80
2021/06/07 07:57:18;;;;;;;8.80;7.95;;;;;;;;;;5090777;28;20477;-83
2021/06/07 07:59:44;;;;;;;15.93;14.35;;;;;;;;;;5090775;28;20536;-83
2021/06/07 08:02:10;;;;;;;8.52;7.00;;;;;;;;;;5088037;28;20035;-84
2021/06/07 08:04:37;;;;;;;6.63;5.90;;;;;;;;;;5085315;28;20494;-78
2021/06/07 08:07:03;;;;;;;6.47;5.82;;;;;;;;;;5073536;28;20035;-80
2021/06/07 08:09:31;;;;;;;9.65;6.57;;;;;;;;;;5075594;28;20025;-81
2021/06/07 08:11:57;;;;;;;6.60;5.97;;;;;;;;;;5076123;28;20039;-79
2021/06/07 08:14:24;;;;;;;7.97;5.82;;;;;;;;;;5075577;28;20032;-79
2021/06/07 08:16:50;;;;;;;6.90;5.70;;;;;;;;;;5075686;28;20070;-80
2021/06/07 08:19:16;;;;;;;7.43;5.93;;;;;;;;;;5094484;28;20032;-80
2021/06/07 08:21:42;;;;;;;8.85;6.13;;;;;;;;;;5089718;28;20794;-79
2021/06/07 08:24:08;;;;;;;7.70;6.07;;;;;;;;;;5075486;28;20475;-82
2021/06/07 08:26:34;;;;;;;6.45;5.63;;;;;;;;;;5075217;28;20036;-80
2021/06/07 08:29:01;;;;;;;6.45;5.85;;;;;;;;;;5075522;28;20094;-81
2021/06/07 08:31:27;;;;;;;9.15;6.47;;;;;;;;;;5075278;28;20028;-79
2021/06/07 08:33:55;;;;;;;7.35;6.03;;;;;;;;;;5075279;28;20028;-82
2021/06/07 08:36:22;;;;;;;8.43;6.13;;;;;;;;;;5063951;28;20024;-80
2021/06/07 08:38:48;;;;;;;7.15;6.43;;;;;;;;;;5081346;28;20028;-80
2021/06/07 08:41:14;;;;;;;8.27;7.22;;;;;;;;;;5065739;28;20361;-79
2021/06/07 08:43:40;;;;;;;7.78;6.93;;;;;;;;;;5063441;28;20025;-81
2021/06/07 08:46:06;;;;;;;7.38;6.60;;;;;;;;;;5064827;28;20024;-80
2021/06/07 08:48:32;;;;;;;7.00;6.38;;;;;;;;;;5067613;28;20032;-82
2021/06/07 08:51:01;;;;;;;7.10;5.82;;;;;;;;;;5071280;28;20521;-84
2021/06/07 08:53:28;;;;;;;6.80;6.20;;;;;;;;;;5073572;28;20028;-83
2021/06/07 08:55:54;;;;;;;6.57;6.00;;;;;;;;;;5074887;28;20114;-83
2021/06/07 08:58:20;;;;;;;7.50;6.47;;;;;;;;;;5072569;28;20094;-82
2021/06/07 09:00:47;;;;;;;6.78;6.18;;;;;;;;;;5073404;28;20029;-85
2021/06/07 09:03:14;;;;;;;6.85;5.90;;;;;;;;;;5082414;28;20028;-84
2021/06/07 09:05:41;;;;;;;7.25;6.55;;;;;;;;;;5085202;28;20465;-84
2021/06/07 09:08:09;;;;;;;6.28;5.72;;;;;;;;;;5075014;28;20024;-84
2021/06/07 09:10:40;;;;;;;6.25;5.65;;;;;;;;;;5074539;28;20017;-83
2021/06/07 09:13:07;;;;;;;6.45;5.78;;;;;;;;;;5074799;28;20017;-83
2021/06/07 09:15:41;;;;;;;7.53;5.85;;;;;;;;;;5079664;28;20028;-83
2021/06/07 09:18:09;;;;;;;6.93;6.22;;;;;;;;;;5080432;28;20032;-83
2021/06/07 09:20:36;;;;;;;7.18;6.47;;;;;;;;;;5088905;28;20428;-84
2021/06/07 09:23:20;;;;;;;6.70;5.93;;;;;;;;;;5080833;28;20024;-83
2021/06/07 09:25:53;;;;;;;8.13;5.60;;;;;;;;;;5085786;28;20059;-84
2021/06/07 09:28:19;;;;;;;7.13;6.38;;;;;;;;;;5076644;28;20276;-85
2021/06/07 09:30:58;;;;;;;6.85;5.70;;;;;;;;;;5093613;28;20398;-81
2021/06/07 09:33:29;;;;;;;7.97;5.57;;;;;;;;;;5092390;28;20039;-84
2021/06/07 09:36:04;;;;;;;6.45;5.88;;;;;;;;;;5093158;28;20052;-80
2021/06/07 09:38:31;;;;;;;9.38;6.65;;;;;;;;;;5093740;28;20032;-82
2021/06/07 09:41:03;;;;;;;7.72;5.82;;;;;;;;;;5092899;28;20032;-85
2021/06/07 09:43:48;;;;;;;7.57;6.22;;;;;;;;;;5093794;28;20035;-83
2021/06/07 09:46:14;;;;;;;6.25;5.75;;;;;;;;;;5093290;28;20035;-82
2021/06/07 09:48:40;;;;;;;6.05;5.45;;;;;;;;;;5093365;28;20020;-87
2021/06/07 09:51:13;;;;;;;8.20;5.95;;;;;;;;;;5092615;28;20107;-84
2021/06/07 09:53:48;;;;;;;6.20;5.60;;;;;;;;;;5091808;28;20060;-83
2021/06/07 09:56:14;;;;;;;5.07;4.57;;;;;;;;;;5090638;28;20055;-82
2021/06/07 09:58:46;;;;;;;6.25;5.68;;;;;;;;;;5064296;28;20542;-83
2021/06/07 10:01:14;;;;;;;7.40;6.32;;;;;;;;;;5065897;28;20032;-82
2021/06/07 10:03:48;;;;;;;6.95;5.50;;;;;;;;;;5055509;28;20033;-88
2021/06/07 10:06:21;;;;;;;6.72;5.60;;;;;;;;;;5052243;28;20052;-85
2021/06/07 10:08:48;;;;;;;5.53;5.03;;;;;;;;;;5052323;28;20036;-80
2021/06/07 10:11:22;;;;;;;5.72;5.22;;;;;;;;;;5053318;28;20040;-82
2021/06/07 10:13:49;;;;;;;6.28;5.60;;;;;;;;;;5053399;28;20025;-86
2021/06/07 10:16:15;;;;;;;5.90;5.40;;;;;;;;;;5067835;28;20040;-79
2021/06/07 10:18:41;;;;;;;6.45;5.85;;;;;;;;;;5072276;28;20120;-82
2021/06/07 10:21:10;;;;;;;6.28;5.57;;;;;;;;;;5070693;28;20036;-83
2021/06/07 10:23:37;;;;;;;6.95;6.05;;;;;;;;;;5073486;28;20031;-83
2021/06/07 10:26:07;;;;;;;6.00;5.22;;;;;;;;;;5072632;28;20405;-81
2021/06/07 10:28:36;;;;;;;6.90;6.20;;;;;;;;;;5072699;28;20044;-83
2021/06/07 10:31:10;;;;;;;8.38;6.18;;;;;;;;;;5074929;28;20028;-84
2021/06/07 10:33:37;;;;;;;9.02;6.78;;;;;;;;;;5077383;28;20024;-84
2021/06/07 10:36:22;;;;;;;5.82;5.30;;;;;;;;;;5092694;28;20028;-80
2021/06/07 10:38:49;;;;;;;5.72;5.22;;;;;;;;;;5093641;28;20386;-80
2021/06/07 10:41:18;;;;;;;5.50;5.00;;;;;;;;;;5086833;28;20036;-83
2021/06/07 10:43:46;;;;;;;5.78;5.20;;;;;;;;;;5081033;28;20028;-82
2021/06/07 10:46:24;;;;;;;5.90;5.30;;;;;;;;;;5076685;28;20037;-81
2021/06/07 10:48:52;;;;;;;6.93;5.63;;;;;;;;;;5073234;28;20024;-84
2021/06/07 10:51:18;;;;;;;7.32;5.25;;;;;;;;;;5069771;28;20040;-80
2021/06/07 10:53:45;;;;;;;7.97;5.93;;;;;;;;;;5065711;28;20391;-85
2021/06/07 10:56:14;;;;;;;6.20;5.60;;;;;;;;;;5054441;28;20056;-85
2021/06/07 10:58:50;;;;;;;6.05;5.38;;;;;;;;;;5072722;28;20024;-75
2021/06/07 11:01:20;;;;;;;6.47;5.10;;;;;;;;;;5072250;28;20033;-85
2021/06/07 11:04:04;;;;;;;5.97;5.07;;;;;;;;;;5052284;28;20028;-83
2021/06/07 11:09:34;;;;;;;6.75;5.38;;;;;;;;;;5070000;28;20047;-83
2021/06/07 11:12:14;;;;;;;7.22;5.47;;;;;;;;;;5081030;28;20073;-87
2021/06/07 11:14:59;;;;;;;6.13;4.97;;;;;;;;;;5088794;28;20374;-85
2021/06/07 11:17:25;;;;;;;6.00;5.18;;;;;;;;;;5072623;28;20036;-85
2021/06/07 11:19:52;;;;;;;7.45;5.30;;;;;;;;;;5072494;28;20032;-85
2021/06/07 11:22:18;;;;;;;6.78;5.80;;;;;;;;;;5061283;28;20025;-81
2021/06/07 11:24:47;;;;;;;6.43;5.82;;;;;;;;;;5052471;28;20037;-85
2021/06/07 11:27:33;;;;;;;6.25;5.75;;;;;;;;;;5050111;28;20108;-83
2021/06/07 11:30:18;;;;;;;10.35;7.90;;;;;;;;;;5083011;28;20025;-82
2021/06/07 11:32:44;;;;;;;5.97;5.38;;;;;;;;;;5072655;28;20113;-81
2021/06/07 11:35:30;;;;;;;6.50;5.65;;;;;;;;;;5072113;28;20433;-82
2021/06/07 11:38:16;;;;;;;6.13;5.50;;;;;;;;;;5072036;28;20055;-81
2021/06/07 11:40:45;;;;;;;6.72;5.20;;;;;;;;;;5071872;28;20036;-84
2021/06/07 11:43:11;;;;;;;5.85;5.35;;;;;;;;;;5072033;28;20383;-85
2021/06/07 11:45:55;;;;;;;5.82;5.32;;;;;;;;;;5072229;28;20043;-84
2021/06/07 11:48:41;;;;;;;6.72;5.57;;;;;;;;;;5081598;28;20035;-84
2021/06/07 11:51:33;;;;;;;6.20;5.55;;;;;;;;;;5087094;28;20036;-84
2021/06/07 11:53:59;;;;;;;6.20;5.60;;;;;;;;;;5075887;28;20115;-83
2021/06/07 11:56:26;;;;;;;6.90;5.95;;;;;;;;;;5071003;28;20154;-84
2021/06/07 11:58:53;;;;;;;8.60;5.82;;;;;;;;;;5070589;28;20093;-84
2021/06/07 12:01:19;;;;;;;6.45;5.80;;;;;;;;;;5078958;28;20032;-81
2021/06/07 12:03:46;;;;;;;6.00;5.47;;;;;;;;;;5081271;28;20111;-80
2021/06/07 12:06:12;;;;;;;6.47;5.75;;;;;;;;;;5078045;28;20037;-84
2021/06/07 12:08:40;;;;;;;6.55;5.95;;;;;;;;;;5081552;28;20073;-85
2021/06/07 12:11:09;;;;;;;7.05;6.30;;;;;;;;;;5078440;28;20032;-77
2021/06/07 12:13:36;;;;;;;6.10;5.50;;;;;;;;;;5080945;28;20051;-85
2021/06/07 12:16:08;;;;;;;6.18;5.57;;;;;;;;;;5079940;28;20028;-85
2021/06/07 12:18:37;;;;;;;11.00;10.10;;;;;;;;;;5081270;28;20032;-85
2021/06/07 12:21:05;;;;;;;10.18;9.18;;;;;;;;;;5076822;28;20103;-83
2021/06/07 12:23:34;;;;;;;6.90;5.90;;;;;;;;;;5070474;28;20033;-74
2021/06/07 12:28:59;;;;;;;7.20;6.60;;;;;;;;;;5077765;28;20086;-83
2021/06/07 12:31:27;;;;;;;6.28;5.78;;;;;;;;;;5078549;28;20066;-83
2021/06/07 12:33:53;;;;;;;9.07;5.78;;;;;;;;;;5073023;28;20406;-84
2021/06/07 12:36:33;;;;;;;6.68;6.05;;;;;;;;;;5091875;28;20048;-85
2021/06/07 12:38:59;;;;;;;7.78;6.15;;;;;;;;;;5090541;28;20052;-85
2021/06/07 12:41:26;;;;;;;5.70;5.13;;;;;;;;;;5090042;28;20370;-84
2021/06/07 12:43:55;;;;;;;8.60;6.45;;;;;;;;;;5086690;28;20376;-88
2021/06/07 12:46:21;;;;;;;5.95;5.28;;;;;;;;;;5073417;28;20040;-86
2021/06/07 12:48:47;;;;;;;7.65;6.80;;;;;;;;;;5078929;28;20039;-82
2021/06/07 12:51:15;;;;;;;8.00;6.68;;;;;;;;;;5075816;28;20298;-81
2021/06/07 12:53:45;;;;;;;7.55;6.70;;;;;;;;;;5076621;28;20056;-84
2021/06/07 12:56:30;;;;;;;6.65;6.03;;;;;;;;;;5073580;28;20044;-86
2021/06/07 12:58:57;;;;;;;6.95;6.25;;;;;;;;;;5073648;28;20031;-81
2021/06/07 13:01:46;;;;;;;7.00;6.28;;;;;;;;;;5074148;28;20502;-83
2021/06/07 13:04:24;;;;;;;6.15;5.60;;;;;;;;;;5075168;28;20098;-83
2021/06/07 13:07:00;;;;;;;9.77;6.90;;;;;;;;;;5073763;28;20032;-82
2021/06/07 13:09:44;;;;;;;5.50;4.93;;;;;;;;;;5078194;28;20032;-83
2021/06/07 13:12:15;;;;;;;6.30;5.70;;;;;;;;;;5092402;28;20487;-82
2021/06/07 13:14:41;;;;;;;6.63;6.00;;;;;;;;;;5080903;28;20040;-84
2021/06/07 13:17:15;;;;;;;5.25;4.68;;;;;;;;;;5083147;28;20020;-85
2021/06/07 13:19:45;;;;;;;5.05;4.43;;;;;;;;;;5094677;28;20028;-88
2021/06/07 13:22:18;;;;;;;4.13;3.42;;;;;;;;;;5078062;28;20025;-85
2021/06/07 13:24:46;;;;;;;5.47;4.93;;;;;;;;;;5077945;28;20024;-75
2021/06/07 13:27:26;;;;;;;5.68;4.00;;;;;;;;;;5079242;28;20031;-86
2021/06/07 13:29:54;;;;;;;5.53;4.50;;;;;;;;;;5065846;28;20092;-86
2021/06/07 13:32:29;;;;;;;6.53;4.65;;;;;;;;;;5054122;28;20028;-82
2021/06/07 13:35:04;;;;;;;4.60;4.20;;;;;;;;;;5062115;28;20486;-82
2021/06/07 13:37:47;;;;;;;7.18;3.85;;;;;;;;;;5074708;28;20107;-85
2021/06/07 13:40:32;;;;;;;6.57;3.97;;;;;;;;;;5073112;28;20120;-83
2021/06/07 13:42:59;;;;;;;8.05;4.03;;;;;;;;;;5074507;28;20074;-83
2021/06/07 13:45:45;;;;;;;4.35;3.70;;;;;;;;;;5074661;28;20123;-83
2021/06/07 13:48:15;;;;;;;6.50;3.50;;;;;;;;;;5088365;28;20085;-84
2021/06/07 13:51:01;;;;;;;6.18;4.18;;;;;;;;;;5081223;28;20036;-87
2021/06/07 13:53:33;;;;;;;6.30;3.65;;;;;;;;;;5087713;28;20094;-83
2021/06/07 13:55:59;;;;;;;15.15;13.57;;;;;;;;;;5076923;28;20470;-85
2021/06/07 13:58:25;;;;;;;5.38;4.15;;;;;;;;;;5073217;28;20470;-80
2021/06/07 14:00:56;;;;;;;5.22;3.10;;;;;;;;;;5074479;28;20032;-86
2021/06/07 14:03:29;;;;;;;4.47;3.00;;;;;;;;;;5073434;28;20035;-82
2021/06/07 14:05:56;;;;;;;5.15;3.25;;;;;;;;;;5076221;28;20024;-81
2021/06/07 14:08:27;;;;;;;6.72;3.47;;;;;;;;;;5077052;28;20097;-82
2021/06/07 14:10:53;;;;;;;4.32;3.17;;;;;;;;;;5078760;28;20055;-82
2021/06/07 14:13:20;;;;;;;5.20;3.53;;;;;;;;;;5076588;28;20115;-81
2021/06/07 14:15:47;;;;;;;4.70;3.10;;;;;;;;;;5076956;28;20107;-83
2021/06/07 14:18:13;;;;;;;8.77;3.60;;;;;;;;;;5073868;28;20028;-83
2021/06/07 14:20:43;;;;;;;3.25;2.92;;;;;;;;;;5074005;28;20506;-82
2021/06/07 14:25:54;;;;;;;6.13;3.45;;;;;;;;;;5076340;28;20522;-85
2021/06/07 14:28:20;;;;;;;4.97;3.75;;;;;;;;;;5076156;28;20457;-84
2021/06/07 14:30:46;;;;;;;7.05;4.05;;;;;;;;;;5075172;28;20032;-82
2021/06/07 14:33:13;;;;;;;6.78;4.07;;;;;;;;;;5076837;28;20040;-82
2021/06/07 14:35:41;;;;;;;5.53;4.30;;;;;;;;;;5076671;28;20104;-83
2021/06/07 14:38:11;;;;;;;4.97;4.45;;;;;;;;;;5072363;28;20058;-83
2021/06/07 14:40:38;;;;;;;4.28;3.75;;;;;;;;;;5072309;28;20031;-82
2021/06/07 14:43:09;;;;;;;6.28;4.28;;;;;;;;;;5074067;28;20028;-83
2021/06/07 14:45:45;;;;;;;5.28;4.78;;;;;;;;;;5071308;28;20028;-83
2021/06/07 14:48:11;;;;;;;7.05;4.50;;;;;;;;;;5062236;28;20024;-82